Time;durP1;ratioP1;P1;durP2;ratioP2;P2;SDS_P1;SDS_P2;PMS_P1;PMS_P2;Temp;Humidity;BMP_temperature;BMP_pressure;BME280_temperature;BME280_humidity;BME280_pressure;Samples;Min_cycle;Max_cycle;Signal;HPM_P1;HPM_P2
2021/09/28 00:02:03;;;;;;;1999.90;999.90;;;;;;;15.24;49.89;101463.88;4830301;28;97391;-73
2021/09/28 00:04:32;;;;;;;1999.90;999.90;;;;;;;15.14;49.68;101460.16;4843427;28;99036;-70
2021/09/28 00:07:14;;;;;;;1999.90;999.90;;;;;;;15.03;49.89;101466.25;4831009;28;99239;-71
2021/09/28 00:09:41;;;;;;;1999.90;999.90;;;;;;;15.02;50.10;101485.91;4844844;28;97981;-71
2021/09/28 00:12:09;;;;;;;1999.90;999.90;;;;;;;14.94;49.77;101482.22;4848198;28;97527;-74
2021/09/28 00:14:37;;;;;;;1999.90;999.90;;;;;;;14.92;50.09;101492.00;4826386;28;99274;-70
2021/09/28 00:17:05;;;;;;;1999.90;999.90;;;;;;;14.84;49.99;101501.72;4812156;28;100656;-69
2021/09/28 00:19:35;;;;;;;1999.90;999.90;;;;;;;14.80;50.28;101502.56;4813122;28;97576;-70
2021/09/28 00:22:03;;;;;;;1999.90;999.90;;;;;;;14.75;50.08;101501.59;4829094;28;97062;-73
2021/09/28 00:24:30;;;;;;;1999.90;999.90;;;;;;;14.62;49.85;101508.53;4830008;28;101006;-70
2021/09/28 00:26:58;;;;;;;1999.90;999.90;;;;;;;14.43;50.20;101508.16;4831051;28;97932;-74
2021/09/28 00:29:26;;;;;;;1999.90;999.90;;;;;;;14.29;50.11;101515.06;4811482;28;98610;-72
2021/09/28 00:31:54;;;;;;;1999.90;999.90;;;;;;;14.21;50.77;101511.38;4828363;28;97906;-74
2021/09/28 00:34:22;;;;;;;1999.90;999.90;;;;;;;14.17;51.00;101528.22;4827226;28;97762;-72
2021/09/28 00:36:51;;;;;;;1999.90;999.90;;;;;;;14.08;50.88;101532.53;4816878;28;98073;-70
2021/09/28 00:39:19;;;;;;;1999.90;999.90;;;;;;;13.98;50.94;101533.25;4830769;28;99940;-74
2021/09/28 00:41:47;;;;;;;1999.90;999.90;;;;;;;13.91;51.15;101531.34;4814362;28;97389;-71
2021/09/28 00:44:15;;;;;;;1999.90;999.90;;;;;;;13.80;51.54;101535.56;4827378;28;99947;-75
2021/09/28 00:46:43;;;;;;;1999.90;999.90;;;;;;;13.71;51.62;101543.38;4828880;28;100293;-71
2021/09/28 00:49:10;;;;;;;1999.90;999.90;;;;;;;13.66;52.23;101541.47;4831262;28;97489;-68
2021/09/28 00:51:38;;;;;;;1999.90;999.90;;;;;;;13.63;51.93;101544.97;4828564;28;97647;-73
2021/09/28 00:54:07;;;;;;;1999.90;999.90;;;;;;;13.56;51.99;101551.06;4835046;28;98101;-70
2021/09/28 00:56:35;;;;;;;1999.90;999.90;;;;;;;13.50;52.10;101547.34;4832446;28;97802;-75
2021/09/28 00:59:04;;;;;;;1999.90;999.90;;;;;;;13.43;52.49;101557.03;4832740;28;97210;-70
2021/09/28 01:01:33;;;;;;;1999.90;999.90;;;;;;;13.34;52.43;101559.50;4851799;28;97377;-71
2021/09/28 01:04:01;;;;;;;1999.90;999.90;;;;;;;13.26;52.53;101562.88;4848205;28;98101;-72
2021/09/28 01:06:29;;;;;;;1999.90;999.90;;;;;;;13.18;52.65;101557.34;4851963;28;97589;-74
2021/09/28 01:08:57;;;;;;;1999.90;999.90;;;;;;;13.15;52.88;101562.59;4834535;28;97724;-72
2021/09/28 01:11:26;;;;;;;1999.90;999.90;;;;;;;13.05;52.98;101574.88;4833972;28;97944;-71
2021/09/28 01:13:53;;;;;;;1999.90;999.90;;;;;;;12.99;53.21;101565.75;4831369;28;100624;-70
2021/09/28 01:16:22;;;;;;;1999.90;999.90;;;;;;;12.95;53.30;101570.13;4816505;28;99147;-71
2021/09/28 01:18:50;;;;;;;1999.90;999.90;;;;;;;12.95;53.25;101564.78;4852744;28;97113;-72
2021/09/28 01:21:20;;;;;;;1999.90;999.90;;;;;;;12.93;53.21;101557.59;4828552;28;98160;-75
2021/09/28 01:23:47;;;;;;;1999.90;999.90;;;;;;;12.92;53.28;101559.38;4845800;28;97704;-72
2021/09/28 01:26:17;;;;;;;1999.90;999.90;;;;;;;12.91;53.21;101556.69;4848322;28;97178;-71
2021/09/28 01:28:45;;;;;;;1999.90;999.90;;;;;;;12.89;53.37;101561.97;4832978;28;97845;-70
2021/09/28 01:31:14;;;;;;;1999.90;999.90;;;;;;;12.87;53.05;101560.13;4832140;28;97750;-71
2021/09/28 01:33:42;;;;;;;1999.90;999.90;;;;;;;12.78;53.40;101559.91;4830468;28;97931;-71
2021/09/28 01:36:10;;;;;;;1999.90;999.90;;;;;;;12.79;53.47;101567.03;4831258;28;99790;-69
2021/09/28 01:38:39;;;;;;;1999.90;999.90;;;;;;;12.78;53.53;101575.94;4832324;28;97406;-71
2021/09/28 01:41:07;;;;;;;1999.90;999.90;;;;;;;12.76;53.56;101577.66;4850007;28;97435;-70
2021/09/28 01:43:35;;;;;;;1999.90;999.90;;;;;;;12.76;53.79;101564.31;4831093;28;97045;-73
2021/09/28 01:46:04;;;;;;;1999.90;999.90;;;;;;;12.80;53.89;101566.22;4849514;28;97514;-71
2021/09/28 01:48:35;;;;;;;1999.90;999.90;;;;;;;12.80;53.55;101569.75;4847242;28;96877;-72
2021/09/28 01:51:03;;;;;;;1999.90;999.90;;;;;;;12.79;53.53;101567.97;4832211;28;97644;-71
2021/09/28 01:53:31;;;;;;;1999.90;999.90;;;;;;;12.83;53.58;101571.59;4848471;28;98802;-73
2021/09/28 01:56:00;;;;;;;1999.90;999.90;;;;;;;12.92;53.68;101570.06;4846574;28;98674;-72
2021/09/28 01:58:29;;;;;;;1999.90;999.90;;;;;;;12.97;53.37;101573.75;4850852;28;97391;-71
2021/09/28 02:00:56;;;;;;;1999.90;999.90;;;;;;;12.98;53.11;101575.53;4843917;28;97821;-73
2021/09/28 02:03:24;;;;;;;1999.90;999.90;;;;;;;13.00;52.95;101576.50;4815802;28;99803;-71
2021/09/28 02:05:52;;;;;;;1999.90;999.90;;;;;;;13.01;52.92;101585.44;4827507;28;100646;-74
2021/09/28 02:08:20;;;;;;;1999.90;999.90;;;;;;;13.00;52.93;101589.00;4850046;28;98088;-74
2021/09/28 02:10:48;;;;;;;1999.90;999.90;;;;;;;12.99;52.96;101574.72;4847458;28;97314;-70
2021/09/28 02:13:17;;;;;;;1999.90;999.90;;;;;;;13.05;53.32;101576.63;4830506;28;100330;-72
2021/09/28 02:15:44;;;;;;;1999.90;999.90;;;;;;;13.04;53.03;101569.47;4833558;28;97716;-70
2021/09/28 02:18:12;;;;;;;1999.90;999.90;;;;;;;13.06;52.90;101575.75;4831045;28;96961;-71
2021/09/28 02:20:40;;;;;;;1999.90;999.90;;;;;;;13.02;52.85;101571.25;4850415;28;97339;-70
2021/09/28 02:23:08;;;;;;;1999.90;999.90;;;;;;;13.03;53.00;101570.34;4846609;28;97671;-72
2021/09/28 02:25:36;;;;;;;1999.90;999.90;;;;;;;13.01;52.92;101573.00;4847689;28;97612;-72
2021/09/28 02:28:05;;;;;;;1999.90;999.90;;;;;;;13.01;52.80;101577.44;4833345;28;98137;-71
2021/09/28 02:30:34;;;;;;;1999.90;999.90;;;;;;;12.97;52.81;101588.88;4848383;28;97215;-73
2021/09/28 02:33:02;;;;;;;1999.90;999.90;;;;;;;12.95;52.73;101595.94;4847478;28;97966;-72
2021/09/28 02:35:30;;;;;;;1999.90;999.90;;;;;;;12.92;52.88;101585.19;4845698;28;97622;-71
2021/09/28 02:37:59;;;;;;;1999.90;999.90;;;;;;;12.89;52.95;101588.66;4846460;28;98024;-70
2021/09/28 02:40:27;;;;;;;1999.90;999.90;;;;;;;12.91;52.91;101583.41;4848110;28;97169;-71
2021/09/28 02:42:54;;;;;;;1999.90;999.90;;;;;;;;;;4830270;28;100260;-72
2021/09/28 02:45:22;;;;;;;1999.90;999.90;;;;;;;12.97;53.19;101576.41;4831995;28;100582;-71
2021/09/28 02:47:51;;;;;;;1999.90;999.90;;;;;;;13.02;52.71;101582.81;4831447;28;97105;-71
2021/09/28 02:50:19;;;;;;;1999.90;999.90;;;;;;;13.01;52.84;101581.00;4830723;28;97053;-67
2021/09/28 02:52:47;;;;;;;1999.90;999.90;;;;;;;12.99;52.81;101581.78;4816420;28;99361;-67
2021/09/28 02:55:15;;;;;;;1999.90;999.90;;;;;;;12.98;52.95;101585.34;4814952;28;98053;-71
2021/09/28 02:57:42;;;;;;;1999.90;999.90;;;;;;;12.96;53.18;101593.31;4831738;28;97813;-67
2021/09/28 03:00:11;;;;;;;1999.90;999.90;;;;;;;13.01;53.41;101598.81;4828445;28;97022;-74
2021/09/28 03:02:39;;;;;;;1999.90;999.90;;;;;;;13.01;53.19;101607.72;4848779;28;97890;-71
2021/09/28 03:05:09;;;;;;;1999.90;999.90;;;;;;;13.00;53.25;101610.38;4829842;28;98951;-70
2021/09/28 03:07:37;;;;;;;1999.90;999.90;;;;;;;12.98;53.21;101610.28;4848411;28;97375;-69
2021/09/28 03:10:05;;;;;;;1999.90;999.90;;;;;;;12.96;53.35;101609.38;4847833;28;97646;-71
2021/09/28 03:12:33;;;;;;;1999.90;999.90;;;;;;;;;;4846298;28;97816;-70
2021/09/28 03:15:01;;;;;;;1999.90;999.90;;;;;;;12.88;53.91;101612.69;4847931;28;97759;-66
2021/09/28 03:17:29;;;;;;;1999.90;999.90;;;;;;;12.84;53.91;101616.13;4828541;28;98188;-69
2021/09/28 03:19:56;;;;;;;1999.90;999.90;;;;;;;12.83;54.15;101611.69;4845949;28;97697;-71
2021/09/28 03:22:25;;;;;;;1999.90;999.90;;;;;;;12.83;54.03;101606.34;4849010;28;100468;-67
2021/09/28 03:24:53;;;;;;;1999.90;999.90;;;;;;;12.82;54.09;101609.88;4830249;28;97765;-69
2021/09/28 03:27:21;;;;;;;1999.90;999.90;;;;;;;12.77;54.15;101609.75;4812515;28;96891;-69
2021/09/28 03:29:49;;;;;;;1999.90;999.90;;;;;;;12.74;54.23;101616.78;4814277;28;98750;-68
2021/09/28 03:32:16;;;;;;;1999.90;999.90;;;;;;;12.72;54.41;101618.50;4845639;28;98309;-70
2021/09/28 03:34:44;;;;;;;1999.90;999.90;;;;;;;12.72;54.38;101623.84;4815431;28;98230;-67
2021/09/28 03:37:12;;;;;;;1999.90;999.90;;;;;;;12.72;54.47;101626.53;4829702;28;97808;-69
2021/09/28 03:39:41;;;;;;;1999.90;999.90;;;;;;;12.74;54.42;101625.72;4831308;28;97845;-73
2021/09/28 03:42:09;;;;;;;1999.90;999.90;;;;;;;12.76;54.24;101631.09;4847751;28;98883;-70
2021/09/28 03:44:37;;;;;;;1999.90;999.90;;;;;;;12.75;54.41;101638.19;4847960;28;97812;-68
2021/09/28 03:47:05;;;;;;;1999.90;999.90;;;;;;;12.76;54.50;101644.44;4829095;28;97468;-69
2021/09/28 03:49:33;;;;;;;1999.90;999.90;;;;;;;12.79;54.58;101649.84;4831176;28;97144;-71
2021/09/28 03:52:01;;;;;;;1999.90;999.90;;;;;;;12.81;54.36;101650.78;4832232;28;100362;-69
2021/09/28 03:54:29;;;;;;;1999.90;999.90;;;;;;;12.79;54.51;101660.53;4846331;28;98575;-70
2021/09/28 03:56:59;;;;;;;1999.90;999.90;;;;;;;12.76;54.51;101660.47;4830205;28;107459;-67
2021/09/28 03:59:27;;;;;;;1999.90;999.90;;;;;;;12.79;54.59;101660.53;4830390;28;97319;-66
2021/09/28 04:01:55;;;;;;;1999.90;999.90;;;;;;;12.75;54.53;101654.22;4837181;28;97309;-68
2021/09/28 04:04:23;;;;;;;1999.90;999.90;;;;;;;12.74;54.53;101662.19;4823557;28;98849;-68
2021/09/28 04:06:51;;;;;;;1999.90;999.90;;;;;;;12.74;54.40;101671.13;4845414;28;97284;-68
2021/09/28 04:09:18;;;;;;;1999.90;999.90;;;;;;;12.69;54.81;101670.06;4831405;28;97616;-65
2021/09/28 04:11:46;;;;;;;1999.90;999.90;;;;;;;12.68;54.54;101668.28;4829261;28;97753;-67
2021/09/28 04:14:17;;;;;;;1999.90;999.90;;;;;;;12.64;54.63;101670.81;4846643;28;99536;-66
2021/09/28 04:16:44;;;;;;;1999.90;999.90;;;;;;;12.62;54.77;101662.75;4828934;28;97319;-69
2021/09/28 04:19:12;;;;;;;1999.90;999.90;;;;;;;12.63;54.74;101661.00;4814840;28;97896;-66
2021/09/28 04:21:40;;;;;;;1999.90;999.90;;;;;;;12.67;54.63;101666.47;4827401;28;99966;-69
2021/09/28 04:24:08;;;;;;;1999.90;999.90;;;;;;;12.70;54.70;101668.31;4830305;28;99050;-67
2021/09/28 04:26:36;;;;;;;1999.90;999.90;;;;;;;12.72;54.60;101670.16;4834159;28;98193;-72
2021/09/28 04:29:04;;;;;;;1999.90;999.90;;;;;;;12.76;54.42;101668.47;4830245;28;98024;-66
2021/09/28 04:31:33;;;;;;;1999.90;999.90;;;;;;;12.79;54.57;101665.88;4827040;28;98944;-71
2021/09/28 04:34:01;;;;;;;1999.90;999.90;;;;;;;12.84;54.32;101672.22;4818587;28;97866;-68
2021/09/28 04:36:28;;;;;;;1999.90;999.90;;;;;;;12.78;54.03;101667.63;4829595;28;98174;-70
2021/09/28 04:38:56;;;;;;;1999.90;999.90;;;;;;;12.78;54.11;101680.13;4844098;28;98657;-70
2021/09/28 04:41:24;;;;;;;1999.90;999.90;;;;;;;12.76;54.18;101679.16;4826942;28;99428;-70
2021/09/28 04:43:52;;;;;;;1999.90;999.90;;;;;;;12.71;54.04;101688.81;4846475;28;98885;-72
2021/09/28 04:46:19;;;;;;;1999.90;999.90;;;;;;;12.64;54.10;101689.50;4845419;28;96933;-70
2021/09/28 04:48:49;;;;;;;1999.90;999.90;;;;;;;12.62;54.10;101685.91;4828003;28;97451;-72
2021/09/28 04:51:16;;;;;;;1999.90;999.90;;;;;;;12.59;54.19;101676.03;4825921;28;100252;-71
2021/09/28 04:53:44;;;;;;;1999.90;999.90;;;;;;;12.59;54.11;101691.16;4828288;28;99432;-71
2021/09/28 04:56:13;;;;;;;1999.90;999.90;;;;;;;12.60;54.26;101698.31;4827959;28;98115;-72
2021/09/28 04:58:41;;;;;;;1999.90;999.90;;;;;;;12.57;54.04;101709.81;4842737;28;97552;-71
2021/09/28 05:01:13;;;;;;;1999.90;999.90;;;;;;;12.53;54.01;101712.38;4823448;28;98313;-69
2021/09/28 05:03:41;;;;;;;1999.90;999.90;;;;;;;12.53;54.25;101720.38;4844950;28;98030;-72
2021/09/28 05:06:14;;;;;;;1999.90;999.90;;;;;;;12.53;54.20;101713.25;4822028;28;97023;-72
2021/09/28 05:08:42;;;;;;;1999.90;999.90;;;;;;;12.57;54.02;101716.91;4829392;28;97283;-68
2021/09/28 05:11:11;;;;;;;1999.90;999.90;;;;;;;12.63;53.87;101722.41;4830293;28;97960;-73
2021/09/28 05:13:39;;;;;;;1999.90;999.90;;;;;;;12.62;54.01;101729.50;4845572;28;97637;-69
2021/09/28 05:16:07;;;;;;;1999.90;999.90;;;;;;;12.65;53.82;101724.28;4829934;28;97497;-72
2021/09/28 05:18:35;;;;;;;1999.90;999.90;;;;;;;12.68;53.84;101726.13;4832006;28;97981;-71
2021/09/28 05:21:03;;;;;;;1999.90;999.90;;;;;;;12.67;53.71;101730.56;4844420;28;99850;-70
2021/09/28 05:23:32;;;;;;;1999.90;999.90;;;;;;;12.61;53.72;101734.81;4812360;28;97665;-67
2021/09/28 05:25:59;;;;;;;1999.90;999.90;;;;;;;12.54;53.85;101744.44;4827066;28;97792;-72
2021/09/28 05:28:27;;;;;;;1999.90;999.90;;;;;;;12.54;54.00;101747.09;4825530;28;97857;-73
2021/09/28 05:30:58;;;;;;;1999.90;999.90;;;;;;;12.55;53.82;101743.56;4827085;28;97667;-70
2021/09/28 05:33:26;;;;;;;1999.90;999.90;;;;;;;12.59;53.77;101745.47;4828711;28;99195;-73
2021/09/28 05:35:55;;;;;;;1999.90;999.90;;;;;;;12.65;53.81;101750.06;4844098;28;97758;-70
2021/09/28 05:38:25;;;;;;;1999.90;999.90;;;;;;;12.69;53.86;101746.63;4812947;28;97301;-71
2021/09/28 05:40:54;;;;;;;1999.90;999.90;;;;;;;12.69;53.50;101752.84;4834033;28;98124;-67
2021/09/28 05:43:22;;;;;;;1999.90;999.90;;;;;;;12.66;53.20;101760.78;4834481;28;97574;-69
2021/09/28 05:45:50;;;;;;;1999.90;999.90;;;;;;;12.64;53.27;101756.25;4836248;28;98249;-70
2021/09/28 05:48:18;;;;;;;1999.90;999.90;;;;;;;12.62;53.34;101768.69;4848215;28;97718;-71
2021/09/28 05:50:46;;;;;;;1999.90;999.90;;;;;;;12.60;53.21;101773.09;4835689;28;100547;-67
2021/09/28 05:53:14;;;;;;;1999.90;999.90;;;;;;;12.57;53.20;101770.31;4848479;28;98791;-70
2021/09/28 05:55:42;;;;;;;1999.90;999.90;;;;;;;12.51;53.12;101780.81;4850498;28;97537;-67
2021/09/28 05:58:11;;;;;;;1999.90;999.90;;;;;;;12.44;53.16;101778.81;4835758;28;97104;-72
2021/09/28 06:00:39;;;;;;;1999.90;999.90;;;;;;;12.39;53.15;101783.13;4821919;28;98888;-73
2021/09/28 06:03:07;;;;;;;1999.90;999.90;;;;;;;12.32;53.24;101778.47;4850025;28;97463;-69
2021/09/28 06:05:35;;;;;;;1999.90;999.90;;;;;;;12.31;53.20;101782.88;4834945;28;98348;-68
2021/09/28 06:08:04;;;;;;;1999.90;999.90;;;;;;;12.35;53.57;101786.56;4836491;28;97670;-68
2021/09/28 06:10:31;;;;;;;1999.90;999.90;;;;;;;12.41;53.40;101787.66;4833876;28;99719;-70
2021/09/28 06:13:01;;;;;;;1999.90;999.90;;;;;;;12.48;53.51;101799.41;4832110;28;99145;-69
2021/09/28 06:15:30;;;;;;;1999.90;999.90;;;;;;;12.48;53.07;101794.06;4835285;28;97830;-70
2021/09/28 06:17:58;;;;;;;1999.90;999.90;;;;;;;12.46;53.06;101796.69;4832704;28;97497;-69
2021/09/28 06:20:25;;;;;;;1999.90;999.90;;;;;;;12.46;53.26;101798.44;4833884;28;99765;-71
2021/09/28 06:22:53;;;;;;;1999.90;999.90;;;;;;;12.49;53.07;101803.91;4850459;28;97987;-70
2021/09/28 06:25:21;;;;;;;1999.90;999.90;;;;;;;12.47;53.00;101805.63;4831348;28;97596;-70
2021/09/28 06:27:49;;;;;;;1999.90;999.90;;;;;;;12.49;53.28;101809.25;4833986;28;97287;-67
2021/09/28 06:30:16;;;;;;;1999.90;999.90;;;;;;;12.48;52.90;101810.09;4818821;28;100291;-69
2021/09/28 06:32:46;;;;;;;1999.90;999.90;;;;;;;12.49;52.75;101811.91;4854460;28;99051;-71
2021/09/28 06:35:13;;;;;;;1999.90;999.90;;;;;;;12.53;52.73;101813.81;4834737;28;97738;-72
2021/09/28 06:37:41;;;;;;;1999.90;999.90;;;;;;;12.49;52.66;101811.91;4833074;28;101518;-72
2021/09/28 06:40:10;;;;;;;1999.90;999.90;;;;;;;12.43;52.50;101815.31;4833361;28;98522;-70
2021/09/28 06:42:38;;;;;;;1999.90;999.90;;;;;;;12.44;52.51;101816.19;4832860;28;100976;-71
2021/09/28 06:45:07;;;;;;;1999.90;999.90;;;;;;;12.45;52.55;101818.94;4851125;28;97979;-72
2021/09/28 06:47:35;;;;;;;1999.90;999.90;;;;;;;12.47;52.37;101825.22;4831744;28;97718;-71
2021/09/28 06:50:05;;;;;;;1999.90;999.90;;;;;;;12.49;52.43;101823.47;4834233;28;97941;-71
2021/09/28 06:52:33;;;;;;;1999.90;999.90;;;;;;;12.46;52.11;101823.41;4834124;28;99778;-69
2021/09/28 06:55:01;;;;;;;1999.90;999.90;;;;;;;12.40;52.42;101835.66;4851834;28;97723;-74
2021/09/28 06:57:28;;;;;;;1999.90;999.90;;;;;;;12.38;52.42;101834.72;4833912;28;98778;-70
2021/09/28 06:59:56;;;;;;;1999.90;999.90;;;;;;;12.39;52.58;101836.50;4834433;28;101248;-72
2021/09/28 07:02:24;;;;;;;1999.90;999.90;;;;;;;12.33;52.26;101836.34;4834036;28;99341;-73
2021/09/28 07:04:52;;;;;;;1999.90;999.90;;;;;;;12.33;52.59;101829.22;4819301;28;97983;-71
2021/09/28 07:07:23;;;;;;;1999.90;999.90;;;;;;;12.36;52.43;101826.66;4813913;28;96938;-67
2021/09/28 07:09:51;;;;;;;1999.90;999.90;;;;;;;12.41;52.14;101842.81;4851366;28;98669;-68
2021/09/28 07:12:20;;;;;;;1999.90;999.90;;;;;;;12.40;52.18;101833.00;4817381;28;100021;-68
2021/09/28 07:14:48;;;;;;;1999.90;999.90;;;;;;;12.33;52.13;101839.00;4850708;28;96933;-69
2021/09/28 07:17:15;;;;;;;1999.90;999.90;;;;;;;12.32;52.20;101839.84;4834400;28;97897;-68
2021/09/28 07:19:43;;;;;;;1999.90;999.90;;;;;;;11.90;53.39;101844.72;4850151;28;97506;-68
2021/09/28 07:22:11;;;;;;;1999.90;999.90;;;;;;;11.75;53.91;101855.78;4834505;28;100648;-67
2021/09/28 07:24:40;;;;;;;1999.90;999.90;;;;;;;11.61;54.23;101849.09;4817160;28;98675;-71
2021/09/28 07:27:08;;;;;;;1999.90;999.90;;;;;;;11.50;54.59;101858.47;4835386;28;97561;-72
2021/09/28 07:29:36;;;;;;;1999.90;999.90;;;;;;;11.40;54.74;101856.34;4852492;28;98834;-71
2021/09/28 07:32:04;;;;;;;1999.90;999.90;;;;;;;11.82;53.71;101868.47;4854039;28;98867;-70
2021/09/28 07:34:32;;;;;;;1999.90;999.90;;;;;;;11.53;54.59;101863.91;4835412;28;97356;-68
2021/09/28 07:37:00;;;;;;;1999.90;999.90;;;;;;;11.44;54.61;101871.59;4834284;28;97577;-70
2021/09/28 07:39:27;;;;;;;1999.90;999.90;;;;;;;11.39;54.97;101862.53;4832879;28;99455;-73
2021/09/28 07:41:56;;;;;;;1999.90;999.90;;;;;;;11.35;54.87;101855.28;4850147;28;98299;-70
2021/09/28 07:44:24;;;;;;;1999.90;999.90;;;;;;;11.79;54.06;101841.69;4830895;28;98668;-69
2021/09/28 07:46:53;;;;;;;1999.90;999.90;;;;;;;11.94;53.01;101851.97;4850913;28;97818;-70
2021/09/28 07:49:21;;;;;;;1999.90;999.90;;;;;;;12.01;52.92;101853.97;4829749;28;98820;-69
2021/09/28 07:51:48;;;;;;;1999.90;999.90;;;;;;;12.00;52.64;101863.72;4835128;28;99474;-68
2021/09/28 07:54:16;;;;;;;1999.90;999.90;;;;;;;11.60;53.84;101867.66;4819270;28;98663;-71
2021/09/28 07:56:44;;;;;;;1999.90;999.90;;;;;;;11.88;52.88;101867.75;4854121;28;97456;-68
2021/09/28 07:59:16;;;;;;;1999.90;999.90;;;;;;;12.00;52.75;101862.81;4832638;28;100792;-68
2021/09/28 08:01:44;;;;;;;1999.90;999.90;;;;;;;12.09;52.44;101877.34;4831212;28;100569;-72
2021/09/28 08:04:12;;;;;;;1999.90;999.90;;;;;;;12.12;52.26;101877.47;4851252;28;97317;-71
2021/09/28 08:06:41;;;;;;;1999.90;999.90;;;;;;;12.18;52.28;101880.34;4848110;28;97836;-69
2021/09/28 08:09:08;;;;;;;1999.90;999.90;;;;;;;12.24;52.21;101871.63;4833932;28;99510;-69
2021/09/28 08:11:36;;;;;;;1999.90;999.90;;;;;;;12.26;51.79;101877.94;4833603;28;99521;-71
2021/09/28 08:14:04;;;;;;;1999.90;999.90;;;;;;;12.27;51.94;101878.84;4833536;28;97453;-69
2021/09/28 08:16:34;;;;;;;1999.90;999.90;;;;;;;12.32;52.11;101878.13;4835076;28;96960;-70
2021/09/28 08:19:02;;;;;;;1999.90;999.90;;;;;;;12.40;51.80;101878.38;4830461;28;100485;-70
2021/09/28 08:21:29;;;;;;;1999.90;999.90;;;;;;;12.44;51.64;101885.59;4832349;28;99226;-67
2021/09/28 08:23:57;;;;;;;1999.90;999.90;;;;;;;12.48;51.47;101890.19;4834007;28;96929;-68
2021/09/28 08:29:20;;;;;;;1999.90;999.90;;;;;;;12.55;51.49;101878.81;4792336;28;98013;-70
2021/09/28 08:31:49;;;;;;;1999.90;999.90;;;;;;;12.63;51.36;101886.22;4848620;28;97735;-67
2021/09/28 08:34:19;;;;;;;1999.90;999.90;;;;;;;12.70;51.17;101881.97;4832443;28;98522;-70
2021/09/28 08:36:48;;;;;;;1999.90;999.90;;;;;;;12.78;51.35;101884.00;4834115;28;96892;-68
2021/09/28 08:39:17;;;;;;;1999.90;999.90;;;;;;;12.90;51.37;101883.47;4849163;28;98082;-70
2021/09/28 08:41:46;;;;;;;1999.90;999.90;;;;;;;12.98;50.99;101884.59;4814039;28;98194;-69
2021/09/28 08:44:14;;;;;;;1999.90;999.90;;;;;;;12.96;50.56;101886.31;4850499;28;97415;-72
2021/09/28 08:46:47;;;;;;;1999.90;999.90;;;;;;;12.96;50.35;101889.91;4831784;28;97249;-68
2021/09/28 08:49:18;;;;;;;1999.90;999.90;;;;;;;12.99;50.34;101886.41;4829804;28;99476;-70
2021/09/28 08:51:46;;;;;;;1999.90;999.90;;;;;;;13.05;50.34;101884.84;4815549;28;98713;-67
2021/09/28 08:54:14;;;;;;;1999.90;999.90;;;;;;;13.13;50.45;101880.63;4831774;28;97037;-68
2021/09/28 08:56:42;;;;;;;1999.90;999.90;;;;;;;13.18;50.03;101888.78;4834852;28;97432;-71
2021/09/28 08:59:10;;;;;;;1999.90;999.90;;;;;;;13.23;50.19;101886.22;4812682;28;99787;-72
2021/09/28 09:01:53;;;;;;;1999.90;999.90;;;;;;;13.29;49.97;101894.41;4832641;28;98730;-71
2021/09/28 09:04:23;;;;;;;1999.90;999.90;;;;;;;13.35;50.02;101897.25;4847175;28;98731;-70
2021/09/28 09:06:51;;;;;;;1999.90;999.90;;;;;;;13.42;50.07;101888.53;4847903;28;96913;-69
2021/09/28 09:09:27;;;;;;;1999.90;999.90;;;;;;;13.51;50.07;101883.44;4831069;28;99530;-69
2021/09/28 09:11:58;;;;;;;1999.90;999.90;;;;;;;13.57;50.02;101892.53;4832968;28;99250;-72
2021/09/28 09:14:27;;;;;;;1999.90;999.90;;;;;;;13.29;50.92;101891.75;4852703;28;97158;-72
2021/09/28 09:16:56;;;;;;;1999.90;999.90;;;;;;;13.50;49.74;101886.97;4833187;28;97265;-69
2021/09/28 09:19:28;;;;;;;1999.90;999.90;;;;;;;13.18;50.79;101889.66;4838647;28;97853;-72
2021/09/28 09:21:58;;;;;;;1999.90;999.90;;;;;;;13.07;51.22;101882.22;4836447;28;100539;-70
2021/09/28 09:24:44;;;;;;;1999.90;999.90;;;;;;;12.99;51.23;101886.41;4839391;28;97086;-68
2021/09/28 09:27:13;;;;;;;;;;;;;;;12.83;51.25;101882.38;4853209;28;97182;-69
2021/09/28 09:29:44;;;;;;;;;;;;;;;12.79;51.34;101882.25;4849982;28;100434;-70
2021/09/28 09:32:12;;;;;;;;;;;;;;;12.73;51.28;101879.41;4855510;28;98023;-70
2021/09/28 09:34:51;;;;;;;;;;;;;;;12.69;51.87;101890.84;4840767;28;97936;-72
2021/09/28 09:37:19;;;;;;;;;;;;;;;12.67;51.82;101895.25;4855698;28;98170;-68
2021/09/28 09:39:47;;;;;;;;;;;;;;;12.64;52.16;101900.47;4837922;28;100290;-67
2021/09/28 09:42:15;;;;;;;;;;;;;;;12.63;52.11;101896.91;4857172;28;98518;-71
2021/09/28 09:44:43;;;;;;;;;;;;;;;12.64;52.07;101889.78;4851520;28;97530;-72
2021/09/28 09:47:24;;;;;;;;;;;;;;;12.64;51.98;101889.78;4855499;28;97272;-71
2021/09/28 09:50:12;;;;;;;1999.90;999.90;;;;;;;12.78;52.11;101888.44;4835618;28;99709;-69
2021/09/28 09:53:10;;;;;;;1999.90;999.90;;;;;;;13.07;51.28;101885.81;4827884;28;97946;-67
2021/09/28 09:55:43;;;;;;;1999.90;999.90;;;;;;;13.26;50.57;101897.91;4832180;28;97165;-70
2021/09/28 09:58:11;;;;;;;1999.90;999.90;;;;;;;13.37;50.04;101892.88;4848223;28;97694;-68
2021/09/28 10:00:40;;;;;;;1999.90;999.90;;;;;;;13.42;49.20;101886.78;4832655;28;99602;-69
2021/09/28 10:03:10;;;;;;;1999.90;999.90;;;;;;;13.48;49.01;101894.94;4818492;28;99718;-68
2021/09/28 10:05:40;;;;;;;1999.90;999.90;;;;;;;13.56;48.96;101896.06;4834409;28;97846;-68
2021/09/28 10:08:12;;;;;;;1999.90;999.90;;;;;;;13.68;49.28;101888.34;4833063;28;97139;-71
2021/09/28 10:10:40;;;;;;;1999.90;999.90;;;;;;;13.82;49.05;101891.44;4850639;28;98069;-71
2021/09/28 10:13:08;;;;;;;1999.90;999.90;;;;;;;13.87;48.81;101887.09;4834215;28;100040;-72
2021/09/28 10:15:35;;;;;;;1999.90;999.90;;;;;;;13.92;48.55;101893.47;4832339;28;97180;-67
2021/09/28 10:18:05;;;;;;;1999.90;999.90;;;;;;;13.96;47.96;101892.69;4835064;28;96899;-68
2021/09/28 10:20:33;;;;;;;1999.90;999.90;;;;;;;13.99;47.82;101893.66;4833154;28;99437;-71
2021/09/28 10:23:14;;;;;;;1999.90;999.90;;;;;;;14.03;47.40;101884.84;4833861;28;99007;-71
2021/09/28 10:25:44;;;;;;;1999.90;999.90;;;;;;;14.03;47.09;101883.94;4833848;28;97673;-74
2021/09/28 10:28:40;;;;;;;1999.90;999.90;;;;;;;14.04;47.03;101896.47;4830268;28;97043;-70
2021/09/28 10:31:14;;;;;;;1999.90;999.90;;;;;;;14.06;46.80;101892.06;4832327;28;99053;-69
2021/09/28 10:33:53;;;;;;;1999.90;999.90;;;;;;;14.07;46.31;101886.72;4819891;28;98286;-68
2021/09/28 10:36:25;;;;;;;1999.90;999.90;;;;;;;14.09;46.56;101879.66;4835363;28;96991;-71
2021/09/28 10:39:00;;;;;;;1999.90;999.90;;;;;;;14.13;46.42;101881.50;4834151;28;97327;-73
2021/09/28 10:41:47;;;;;;;1999.90;999.90;;;;;;;14.21;46.73;101875.44;4832887;28;98775;-69
2021/09/28 10:44:40;;;;;;;1999.90;999.90;;;;;;;14.26;46.73;101879.13;4832986;28;97439;-73
2021/09/28 10:47:09;;;;;;;1999.90;999.90;;;;;;;14.33;46.60;101886.44;4826262;28;97821;-71
2021/09/28 10:49:38;;;;;;;1999.90;999.90;;;;;;;14.37;46.25;101882.97;4832554;28;97737;-69
2021/09/28 10:52:37;;;;;;;1999.90;999.90;;;;;;;14.44;45.96;101882.22;4849444;28;97853;-72
2021/09/28 10:55:30;;;;;;;1999.90;999.90;;;;;;;14.51;45.71;101877.06;4832288;28;97151;-71
2021/09/28 10:58:01;;;;;;;1999.90;999.90;;;;;;;14.55;45.66;101878.03;4832102;28;96848;-69
2021/09/28 11:00:30;;;;;;;1999.90;999.90;;;;;;;14.51;45.34;101881.50;4816857;28;99128;-71
2021/09/28 11:03:00;;;;;;;1999.90;999.90;;;;;;;14.46;45.15;101867.09;4833509;28;100759;-69